Time;durP1;ratioP1;P1;durP2;ratioP2;P2;SDS_P1;SDS_P2;PMS_P1;PMS_P2;Temp;Humidity;BMP_temperature;BMP_pressure;BME280_temperature;BME280_humidity;BME280_pressure;Samples;Min_cycle;Max_cycle;Signal;HPM_P1;HPM_P2
2022/09/02 00:04:42;;;;;;;;;;;12.70;99.90;;;11.59;100.00;95758.78;10475848;28;2902;-78
2022/09/02 00:09:45;;;;;;;;;;;12.70;99.90;;;11.74;100.00;95750.56;10469812;28;2834;-72
2022/09/02 00:14:48;;;;;;;;;;;12.70;99.90;;;11.66;100.00;95751.19;10480192;28;2442;-72
2022/09/02 00:19:53;;;;;;;;;;;12.70;99.90;;;11.47;100.00;95751.03;10482759;28;2349;-71
2022/09/02 00:24:58;;;;;;;;;;;12.60;99.90;;;11.45;100.00;95744.31;10480325;28;2920;-72
2022/09/02 00:30:01;;;;;;;;;;;12.50;99.90;;;11.47;100.00;95742.16;10476012;28;2473;-72
2022/09/02 00:35:04;;;;;;;;;;;12.50;99.90;;;11.34;100.00;95741.69;10479687;28;2912;-72
2022/09/02 00:40:07;;;;;;;;;;;12.50;99.90;;;11.44;100.00;95740.00;10478874;28;2800;-71
2022/09/02 00:45:10;;;;;;;;;;;12.40;99.90;;;11.25;100.00;95743.34;10477740;28;2162;-72
2022/09/02 00:50:13;;;;;;;;;;;12.40;99.90;;;11.23;100.00;95737.47;10484564;28;2912;-72
2022/09/02 00:55:16;;;;;;;;;;;12.30;99.90;;;11.31;100.00;95730.69;10482374;28;2415;-71
2022/09/02 01:00:19;;;;;;;;;;;12.30;99.90;;;11.25;100.00;95729.91;10479655;28;3022;-71
2022/09/02 01:05:22;;;;;;;;;;;12.20;99.90;;;11.16;100.00;95722.72;10474612;28;2853;-71
2022/09/02 01:10:25;;;;;;;;;;;12.20;99.90;;;11.15;100.00;95727.28;10475399;28;2363;-71
2022/09/02 01:15:29;;;;;;;;;;;12.10;99.90;;;11.11;100.00;95731.59;10482837;28;2965;-71
2022/09/02 01:20:31;;;;;;;;;;;12.10;99.90;;;11.07;100.00;95730.56;10489562;28;2401;-75
2022/09/02 01:25:34;;;;;;;;;;;12.10;99.90;;;11.01;100.00;95721.72;10491890;28;2327;-76
2022/09/02 01:30:37;;;;;;;;;;;12.10;99.90;;;10.89;100.00;95728.50;10491311;28;2863;-71
2022/09/02 01:35:40;;;;;;;;;;;12.00;99.90;;;10.92;100.00;95727.94;10487438;28;2881;-72
2022/09/02 01:40:42;;;;;;;;;;;11.90;99.90;;;10.91;100.00;95716.38;10479174;28;2821;-72
2022/09/02 01:45:45;;;;;;;;;;;12.00;99.90;;;10.86;100.00;95718.28;10484476;28;2339;-71
2022/09/02 01:50:48;;;;;;;;;;;11.90;99.90;;;10.86;100.00;95707.53;10497923;28;2955;-70
2022/09/02 01:55:51;;;;;;;;;;;11.80;99.90;;;10.74;100.00;95711.34;10491661;28;2328;-72
2022/09/02 02:00:54;;;;;;;;;;;11.80;99.90;;;10.83;100.00;95709.72;10487339;28;3227;-72
2022/09/02 02:05:57;;;;;;;;;;;11.80;99.90;;;10.76;100.00;95706.50;10490651;28;2277;-71
2022/09/02 02:11:00;;;;;;;;;;;11.80;99.90;;;10.85;100.00;95703.25;10482827;28;2929;-73
2022/09/02 02:16:03;;;;;;;;;;;11.90;99.90;;;10.65;100.00;95699.56;10462996;28;2805;-72
2022/09/02 02:21:06;;;;;;;;;;;11.80;99.90;;;10.64;100.00;95703.34;10489556;28;2848;-72
2022/09/02 02:26:09;;;;;;;;;;;11.70;99.90;;;10.70;100.00;95696.88;10484038;28;2359;-71
2022/09/02 02:31:11;;;;;;;;;;;11.70;99.90;;;10.70;100.00;95701.44;10485706;28;2942;-72
2022/09/02 02:36:14;;;;;;;;;;;11.80;99.90;;;10.73;100.00;95704.38;10488826;28;2406;-73
2022/09/02 02:41:17;;;;;;;;;;;11.80;99.90;;;10.68;100.00;95704.38;10482275;28;2854;-76
2022/09/02 02:46:20;;;;;;;;;;;11.70;99.90;;;10.69;100.00;95692.56;10486678;28;2901;-74
2022/09/02 02:51:23;;;;;;;;;;;11.70;99.90;;;10.65;100.00;95688.81;10486890;28;2897;-72
2022/09/02 02:56:26;;;;;;;;;;;11.70;99.90;;;10.53;100.00;95693.69;10481222;28;3041;-72
2022/09/02 03:01:29;;;;;;;;;;;11.60;99.90;;;10.60;100.00;95694.22;10484247;28;2909;-72
2022/09/02 03:06:32;;;;;;;;;;;11.50;99.90;;;10.59;100.00;95691.81;10485364;28;3129;-73
2022/09/02 03:11:35;;;;;;;;;;;11.60;99.90;;;10.53;100.00;95685.63;10488270;28;2907;-73
2022/09/02 03:16:38;;;;;;;;;;;11.60;99.90;;;10.43;100.00;95673.06;10494854;28;2895;-74
2022/09/02 03:21:41;;;;;;;;;;;11.60;99.90;;;10.40;100.00;95670.09;10487766;28;2940;-75
2022/09/02 03:26:44;;;;;;;;;;;11.50;99.90;;;10.40;100.00;95678.16;10486766;28;2954;-72
2022/09/02 03:31:47;;;;;;;;;;;11.40;99.90;;;10.25;100.00;95676.34;10465003;28;2931;-73
2022/09/02 03:36:49;;;;;;;;;;;11.30;99.90;;;10.23;100.00;95687.34;10484636;28;3143;-73
2022/09/02 03:41:52;;;;;;;;;;;11.30;99.90;;;10.34;100.00;95674.69;10483804;28;2893;-74
2022/09/02 03:46:55;;;;;;;;;;;11.30;99.90;;;10.22;100.00;95674.97;10484696;28;2845;-71
2022/09/02 03:51:58;;;;;;;;;;;11.30;99.90;;;10.21;100.00;95670.66;10482035;28;2874;-72
2022/09/02 03:57:02;;;;;;;;;;;11.30;99.90;;;10.07;100.00;95672.34;10480450;28;2909;-71
2022/09/02 04:02:05;;;;;;;;;;;11.10;99.90;;;10.07;100.00;95668.84;10482494;28;2383;-72
2022/09/02 04:07:09;;;;;;;;;;;11.20;99.90;;;10.01;100.00;95670.72;10482572;28;2875;-72
2022/09/02 04:12:12;;;;;;;;;;;11.10;99.90;;;9.97;100.00;95664.28;10480356;28;2893;-72
2022/09/02 04:17:14;;;;;;;;;;;11.00;99.90;;;9.93;100.00;95668.59;10485731;28;3391;-74
2022/09/02 04:22:17;;;;;;;;;;;11.00;99.90;;;9.93;100.00;95663.25;10480435;28;3005;-72
2022/09/02 04:27:20;;;;;;;;;;;11.00;99.90;;;9.87;100.00;95669.69;10481318;28;2446;-71
2022/09/02 04:32:25;;;;;;;;;;;10.90;99.90;;;9.81;100.00;95668.09;10482071;28;2885;-72
2022/09/02 04:37:28;;;;;;;;;;;10.90;99.90;;;9.86;100.00;95668.06;10477643;28;2293;-70
2022/09/02 04:42:31;;;;;;;;;;;10.90;99.90;;;9.78;100.00;95672.09;10479090;28;3004;-71
2022/09/02 04:47:33;;;;;;;;;;;10.80;99.90;;;9.91;100.00;95671.53;10480141;28;2347;-71
2022/09/02 04:52:36;;;;;;;;;;;10.90;99.90;;;10.17;100.00;95674.97;10494764;28;2961;-71
2022/09/02 04:57:39;;;;;;;;;;;11.10;99.90;;;10.44;100.00;95668.50;10498353;28;2348;-74
2022/09/02 05:02:42;;;;;;;;;;;11.30;99.90;;;10.47;100.00;95670.63;10491980;28;2894;-78
2022/09/02 05:07:45;;;;;;;;;;;11.30;99.90;;;10.74;100.00;95670.22;10496119;28;2924;-71
2022/09/02 05:12:48;;;;;;;;;;;11.50;99.90;;;10.94;100.00;95670.13;10492293;28;2973;-71
2022/09/02 05:17:51;;;;;;;;;;;11.60;99.90;;;10.84;100.00;95675.53;10497156;28;2909;-70
2022/09/02 05:22:54;;;;;;;;;;;11.80;99.90;;;10.93;100.00;95678.44;10496661;28;2339;-71
2022/09/02 05:27:57;;;;;;;;;;;11.80;99.90;;;11.60;100.00;95674.22;10498681;28;2289;-71
2022/09/02 05:32:59;;;;;;;;;;;12.10;99.90;;;11.73;100.00;95673.56;10497519;28;3010;-72
2022/09/02 05:38:03;;;;;;;;;;;12.40;99.90;;;12.16;100.00;95671.03;10497197;28;2368;-71
2022/09/02 05:43:06;;;;;;;;;;;12.60;99.90;;;12.16;100.00;95674.53;10492632;28;2464;-72
2022/09/02 05:53:26;;;;;;;;;;;12.90;99.90;;;12.01;100.00;95668.47;10488786;28;2926;-72
2022/09/02 05:58:30;;;;;;;;;;;13.00;99.90;;;11.89;100.00;95671.56;10494081;28;2914;-72
2022/09/02 06:03:34;;;;;;;;;;;12.80;99.90;;;11.96;100.00;95665.84;10485273;28;2851;-74
2022/09/02 06:08:37;;;;;;;;;;;12.70;99.90;;;12.08;100.00;95677.03;10482429;28;2999;-73
2022/09/02 06:13:40;;;;;;;;;;;12.90;99.90;;;12.36;100.00;95660.03;10487391;28;2864;-73
2022/09/02 06:18:42;;;;;;;;;;;13.20;99.90;;;12.19;100.00;95665.06;10484198;28;2328;-71
2022/09/02 06:23:45;;;;;;;;;;;13.20;99.90;;;12.26;100.00;95662.81;10479469;28;2875;-71
2022/09/02 06:28:48;;;;;;;;;;;13.10;99.90;;;12.51;100.00;95664.44;10482480;28;2952;-72
2022/09/02 06:33:52;;;;;;;;;;;13.30;99.90;;;12.73;100.00;95663.09;10469658;28;2374;-72
2022/09/02 06:38:56;;;;;;;;;;;13.50;99.90;;;12.95;100.00;95653.34;10470024;28;2556;-71
2022/09/02 06:43:59;;;;;;;;;;;13.80;99.90;;;13.27;100.00;95651.81;10479560;28;2921;-71
2022/09/02 06:49:02;;;;;;;;;;;14.00;99.90;;;13.14;100.00;95652.53;10485889;28;2854;-71
2022/09/02 06:54:05;;;;;;;;;;;13.90;99.90;;;13.30;100.00;95647.75;10478525;28;2977;-72
2022/09/02 06:59:08;;;;;;;;;;;14.00;99.90;;;13.57;100.00;95647.84;10478491;28;2908;-74
2022/09/02 07:09:32;;;;;;;;;;;14.60;99.90;;;14.25;100.00;95649.06;10478257;28;2358;-72
2022/09/02 07:14:35;;;;;;;;;;;14.90;99.90;;;14.49;100.00;95652.41;10478510;28;2340;-73
2022/09/02 07:19:39;;;;;;;;;;;15.20;99.90;;;14.51;100.00;95647.53;10482130;28;3021;-71
2022/09/02 07:24:43;;;;;;;;;;;15.30;99.90;;;14.79;100.00;95652.91;10485455;28;2959;-71
2022/09/02 07:29:47;;;;;;;;;;;15.50;99.90;;;15.26;100.00;95648.84;10478480;28;2886;-72
2022/09/02 07:34:54;;;;;;;;;;;15.80;99.90;;;14.84;100.00;95650.88;10480872;28;2946;-73
2022/09/02 07:39:57;;;;;;;;;;;15.90;99.90;;;15.10;100.00;95645.72;10484178;28;2916;-72
2022/09/02 07:45:00;;;;;;;;;;;15.90;99.90;;;15.59;100.00;95646.75;10482931;28;2894;-72
2022/09/02 07:50:05;;;;;;;;;;;16.10;99.90;;;15.86;97.42;95642.31;10483640;28;2319;-71
2022/09/02 07:55:24;;;;;;;;;;;16.50;99.90;;;16.04;97.14;95635.88;10458319;28;2319;-71
2022/09/02 08:00:27;;;;;;;;;;;16.70;99.90;;;16.27;93.81;95635.81;10478881;28;2838;-71
2022/09/02 08:05:30;;;;;;;;;;;17.00;99.90;;;16.41;90.38;95642.75;10468063;28;2827;-72
2022/09/02 08:10:33;;;;;;;;;;;17.10;99.90;;;16.41;89.59;95633.78;10480065;28;2991;-73
2022/09/02 08:15:36;;;;;;;;;;;17.20;99.90;;;16.40;87.17;95629.47;10475107;28;3179;-73
2022/09/02 08:20:40;;;;;;;;;;;17.30;99.90;;;16.75;86.54;95627.72;10484245;28;2333;-75
2022/09/02 08:25:44;;;;;;;;;;;17.40;99.90;;;16.79;80.03;95636.00;10475277;28;3165;-76
2022/09/02 08:30:51;;;;;;;;;;;17.60;99.90;;;16.82;77.62;95630.75;10483644;28;3142;-75
2022/09/02 08:35:55;;;;;;;;;;;17.70;99.90;;;16.95;73.77;95629.03;10462002;28;3229;-74
2022/09/02 08:40:58;;;;;;;;;;;17.90;99.90;;;17.47;73.58;95618.16;10476865;28;2249;-73
2022/09/02 08:46:03;;;;;;;;;;;17.90;99.90;;;17.82;68.01;95610.81;10473937;28;3326;-74
2022/09/02 08:51:07;;;;;;;;;;;18.40;99.90;;;17.89;64.18;95616.53;10475890;28;2405;-74
2022/09/02 08:56:10;;;;;;;;;;;18.60;99.90;;;17.79;62.68;95609.50;10477068;28;3296;-74
2022/09/02 09:01:12;;;;;;;;;;;18.60;99.90;;;17.86;61.76;95614.44;10474573;28;3179;-76
2022/09/02 09:06:15;;;;;;;;;;;18.70;99.90;;;17.96;59.99;95619.56;10476239;28;3171;-75
2022/09/02 09:11:19;;;;;;;;;;;18.70;99.90;;;18.63;58.01;95604.38;10473026;28;3179;-75
2022/09/02 09:16:22;;;;;;;;;;;19.00;99.90;;;18.44;55.47;95606.72;10477862;28;3222;-75
2022/09/02 09:21:25;;;;;;;;;;;19.40;99.90;;;17.80;56.49;95615.75;10477324;28;2302;-73
2022/09/02 09:26:29;;;;;;;;;;;18.80;99.90;;;17.83;55.56;95606.97;10475384;28;3205;-74
2022/09/02 09:31:34;;;;;;;;;;;18.80;99.90;;;17.99;55.20;95602.56;10479633;28;3227;-74
2022/09/02 09:36:37;;;;;;;;;;;18.80;99.90;;;18.29;54.46;95589.84;10480531;28;2304;-74
2022/09/02 09:41:40;;;;;;;;;;;18.90;99.90;;;18.61;53.24;95584.88;10486972;28;3267;-73
2022/09/02 09:46:43;;;;;;;;;;;19.30;99.90;;;18.10;53.28;95590.22;10482694;28;3152;-73
2022/09/02 09:51:46;;;;;;;;;;;19.10;99.90;;;18.04;52.41;95585.28;10481374;28;3216;-75
2022/09/02 09:56:52;;;;;;;;;;;19.00;99.90;;;18.11;52.28;95582.88;10483176;28;3168;-73
2022/09/02 10:01:57;;;;;;;;;;;19.00;99.90;;;18.09;52.97;95585.91;10480612;28;3264;-73
2022/09/02 10:07:00;;;;;;;;;;;19.10;99.90;;;18.50;51.91;95578.19;10481944;28;3220;-72
2022/09/02 10:12:03;;;;;;;;;;;19.10;99.90;;;18.42;51.97;95576.34;10483904;28;3260;-73
2022/09/02 10:17:06;;;;;;;;;;;19.40;99.90;;;18.89;50.96;95569.69;10484199;28;3288;-75
2022/09/02 10:22:09;;;;;;;;;;;19.60;99.90;;;18.78;50.52;95595.69;10479205;28;3060;-73
2022/09/02 10:27:12;;;;;;;;;;;19.60;99.90;;;18.54;50.02;95573.72;10483757;28;2470;-75
2022/09/02 10:32:22;;;;;;;;;;;19.60;99.90;;;18.59;49.75;95577.03;10486813;28;3396;-74
2022/09/02 10:37:25;;;;;;;;;;;19.50;99.90;;;19.29;49.08;95580.09;10484226;28;2327;-75
2022/09/02 10:42:28;;;;;;;;;;;19.90;99.90;;;19.28;48.11;95572.25;10481682;28;3144;-73
2022/09/02 10:47:31;;;;;;;;;;;20.00;99.90;;;19.34;47.06;95566.28;10479666;28;3304;-73
2022/09/02 10:52:35;;;;;;;;;;;20.20;99.90;;;19.18;47.45;95560.63;10480389;28;3176;-74
2022/09/02 10:57:37;;;;;;;;;;;20.20;99.90;;;19.00;48.96;95552.91;10481669;28;3439;-72
2022/09/02 11:02:40;;;;;;;;;;;19.90;99.90;;;19.02;47.63;95554.19;10481076;28;3200;-74
2022/09/02 11:07:43;;;;;;;;;;;20.00;99.90;;;19.13;47.55;95555.38;10482480;28;3117;-74
2022/09/02 11:12:46;;;;;;;;;;;20.00;99.90;;;18.81;46.93;95548.72;10486165;28;3414;-75
2022/09/02 11:17:51;;;;;;;;;;;20.00;99.90;;;18.95;47.04;95547.66;10484858;28;2269;-75
2022/09/02 11:22:54;;;;;;;;;;;19.90;99.90;;;19.08;46.96;95541.16;10482435;28;2267;-73
2022/09/02 11:27:57;;;;;;;;;;;20.00;99.90;;;19.09;46.35;95531.88;10485114;28;3194;-73
2022/09/02 11:33:01;;;;;;;;;;;20.10;99.90;;;19.39;46.15;95541.50;10484484;28;2316;-74
2022/09/02 11:38:04;;;;;;;;;;;20.20;99.90;;;19.05;46.06;95536.38;10486726;28;3077;-75
2022/09/02 11:43:07;;;;;;;;;;;20.20;99.90;;;19.16;47.39;95534.84;10483265;28;3231;-74
2022/09/02 11:48:10;;;;;;;;;;;20.10;99.90;;;19.43;47.09;95534.28;10486688;28;3266;-74
2022/09/02 11:53:12;;;;;;;;;;;20.10;99.90;;;19.42;46.53;95527.22;10479860;28;3144;-74
2022/09/02 11:58:16;;;;;;;;;;;20.40;99.90;;;19.46;45.65;95527.34;10480563;28;3142;-75
2022/09/02 12:03:19;;;;;;;;;;;20.40;99.90;;;19.49;46.16;95525.88;10478457;28;3536;-72
2022/09/02 12:08:42;;;;;;;;;;;20.40;99.90;;;19.74;46.74;95526.78;10486724;28;3234;-75
2022/09/02 12:13:47;;;;;;;;;;;20.60;99.90;;;19.88;46.08;95510.88;10479540;28;2295;-78
2022/09/02 12:18:52;;;;;;;;;;;20.70;99.90;;;19.97;44.98;95515.09;10481959;28;2333;-76
2022/09/02 12:23:55;;;;;;;;;;;20.80;99.90;;;20.00;44.84;95521.03;10477271;28;3129;-72
2022/09/02 12:28:59;;;;;;;;;;;20.90;99.90;;;19.78;44.54;95528.47;10476121;28;2270;-72
2022/09/02 12:39:10;;;;;;;;;;;20.80;99.90;;;19.85;43.91;95522.47;10467072;28;3112;-72
2022/09/02 12:44:14;;;;;;;;;;;20.80;99.90;;;19.82;44.81;95512.25;10486570;28;1973;-72
2022/09/02 12:49:17;;;;;;;;;;;20.80;99.90;;;20.09;44.39;95497.94;10485592;28;2346;-72
2022/09/02 12:54:23;;;;;;;;;;;20.90;99.90;;;20.66;43.49;95491.53;10473547;28;3167;-72
2022/09/02 12:59:26;;;;;;;;;;;21.30;99.90;;;20.39;43.75;95506.69;10482960;28;3246;-73
2022/09/02 13:04:30;;;;;;;;;;;21.00;99.90;;;20.51;43.84;95495.00;10478702;28;3193;-72
2022/09/02 13:09:34;;;;;;;;;;;21.30;99.90;;;20.48;43.95;95496.47;10476795;28;3134;-72
2022/09/02 13:14:38;;;;;;;;;;;21.40;99.90;;;20.22;44.04;95487.81;10493361;28;3190;-73
2022/09/02 13:19:41;;;;;;;;;;;21.20;99.90;;;20.23;44.55;95486.66;10487459;28;3186;-72
2022/09/02 13:24:44;;;;;;;;;;;21.10;99.90;;;20.09;44.57;95483.50;10484110;28;2344;-75
2022/09/02 13:29:48;;;;;;;;;;;21.10;99.90;;;20.62;44.11;95479.72;10489546;28;2306;-72
2022/09/02 13:34:51;;;;;;;;;;;21.20;99.90;;;20.17;44.19;95477.16;10487645;28;2266;-73
2022/09/02 13:39:54;;;;;;;;;;;21.20;99.90;;;20.36;44.13;95471.91;10467260;28;3152;-72
2022/09/02 13:44:57;;;;;;;;;;;21.20;99.90;;;20.15;44.31;95466.56;10484732;28;3154;-73
2022/09/02 13:50:00;;;;;;;;;;;21.10;99.90;;;20.26;44.90;95469.63;10484386;28;2379;-74
2022/09/02 13:55:07;;;;;;;;;;;21.10;99.90;;;20.40;44.74;95467.31;10483269;28;3207;-72
2022/09/02 14:00:10;;;;;;;;;;;21.20;99.90;;;20.47;43.89;95462.09;10487393;28;3166;-72
2022/09/02 14:05:13;;;;;;;;;;;21.30;99.90;;;20.50;43.60;95472.34;10485689;28;2372;-73
2022/09/02 14:10:16;;;;;;;;;;;21.30;99.90;;;20.35;43.93;95464.81;10486886;28;3153;-72
2022/09/02 14:15:19;;;;;;;;;;;21.30;99.90;;;20.40;44.13;95452.88;10479582;28;3133;-72
2022/09/02 14:20:23;;;;;;;;;;;21.20;99.90;;;20.25;43.88;95449.72;10486608;28;2563;-72
2022/09/02 14:25:26;;;;;;;;;;;21.20;99.90;;;20.41;44.16;95452.53;10483408;28;2324;-74
2022/09/02 14:30:29;;;;;;;;;;;21.20;99.90;;;20.37;43.99;95448.91;10486086;28;3132;-72
2022/09/02 14:35:32;;;;;;;;;;;21.10;99.90;;;20.38;44.30;95430.59;10480445;28;2394;-72
2022/09/02 14:40:35;;;;;;;;;;;21.20;99.90;;;20.40;43.81;95422.84;10477688;28;2329;-72
2022/09/02 14:45:39;;;;;;;;;;;21.20;99.90;;;20.35;44.08;95421.16;10478977;28;3182;-75
2022/09/02 14:50:42;;;;;;;;;;;21.20;99.90;;;20.29;43.88;95427.19;10484245;28;3256;-69
2022/09/02 14:55:45;;;;;;;;;;;21.20;99.90;;;20.41;44.03;95410.78;10483492;28;3251;-71
2022/09/02 15:00:50;;;;;;;;;;;21.10;99.90;;;20.37;43.85;95412.63;10487111;28;2316;-68
2022/09/02 15:05:53;;;;;;;;;;;21.10;99.90;;;20.33;43.58;95412.50;10486507;28;2324;-69
2022/09/02 15:10:56;;;;;;;;;;;21.10;99.90;;;20.31;44.30;95409.34;10483058;28;3319;-69
2022/09/02 15:15:59;;;;;;;;;;;21.10;99.90;;;20.33;44.19;95412.50;10477528;28;3172;-70
2022/09/02 15:21:03;;;;;;;;;;;21.10;99.90;;;20.15;44.08;95400.25;10490873;28;3195;-69
2022/09/02 15:26:07;;;;;;;;;;;21.10;99.90;;;20.08;44.27;95402.78;10485041;28;2290;-68
2022/09/02 15:31:09;;;;;;;;;;;20.90;99.90;;;20.11;44.30;95404.84;10485123;28;3212;-65
2022/09/02 15:36:12;;;;;;;;;;;20.90;99.90;;;20.03;44.26;95413.91;10487727;28;3290;-76
2022/09/02 15:41:15;;;;;;;;;;;20.90;99.90;;;20.02;44.97;95412.34;10486362;28;3155;-76
2022/09/02 15:46:18;;;;;;;;;;;20.90;99.90;;;19.83;44.93;95418.38;10485053;28;3205;-68
2022/09/02 15:51:21;;;;;;;;;;;20.70;99.90;;;19.69;44.99;95405.88;10480407;28;3249;-68
2022/09/02 15:56:23;;;;;;;;;;;20.60;99.90;;;19.65;45.42;95404.16;10484294;28;3137;-68
2022/09/02 16:01:26;;;;;;;;;;;20.50;99.90;;;19.58;45.17;95398.47;10484520;28;3121;-69
2022/09/02 16:06:29;;;;;;;;;;;20.50;99.90;;;19.52;45.71;95388.91;10481756;28;3200;-68
2022/09/02 16:11:32;;;;;;;;;;;20.30;99.90;;;19.42;45.35;95388.22;10486032;28;3179;-68
2022/09/02 16:16:35;;;;;;;;;;;20.30;99.90;;;19.38;46.12;95384.56;10466565;28;3129;-69
2022/09/02 16:21:39;;;;;;;;;;;20.30;99.90;;;19.36;46.21;95386.84;10484598;28;3215;-69
2022/09/02 16:26:42;;;;;;;;;;;20.30;99.90;;;19.28;47.21;95390.47;10489546;28;3337;-68
2022/09/02 16:31:50;;;;;;;;;;;20.20;99.90;;;19.19;47.18;95381.59;10480462;28;2353;-71
2022/09/02 16:37:13;;;;;;;;;;;20.10;99.90;;;19.13;47.43;95389.19;10472106;28;3299;-69
2022/09/02 16:42:17;;;;;;;;;;;20.00;99.90;;;19.05;47.12;95386.56;10483622;28;3124;-68
2022/09/02 16:47:21;;;;;;;;;;;19.90;99.90;;;18.99;47.55;95377.81;10477822;28;3195;-71
2022/09/02 16:52:24;;;;;;;;;;;19.80;99.90;;;18.91;47.81;95384.13;10479730;28;3329;-69
2022/09/02 16:57:28;;;;;;;;;;;19.80;99.90;;;18.78;48.03;95391.47;10469259;28;3362;-71
2022/09/02 17:02:31;;;;;;;;;;;19.70;99.90;;;18.69;48.36;95379.84;10479518;28;2367;-70
2022/09/02 17:07:34;;;;;;;;;;;19.60;99.90;;;18.61;48.99;95388.88;10476221;28;2343;-69
2022/09/02 17:12:37;;;;;;;;;;;19.50;99.90;;;18.45;49.50;95379.72;10485090;28;2270;-69
2022/09/02 17:17:44;;;;;;;;;;;19.40;99.90;;;18.32;50.04;95376.97;10485081;28;2276;-67
2022/09/02 17:22:47;;;;;;;;;;;19.30;99.90;;;18.19;50.79;95377.19;10477806;28;3219;-69
2022/09/02 17:27:50;;;;;;;;;;;19.10;99.90;;;18.09;51.35;95381.13;10481502;28;3115;-68
2022/09/02 17:32:52;;;;;;;;;;;19.00;99.90;;;17.81;52.79;95373.47;10481301;28;3377;-70
2022/09/02 17:37:58;;;;;;;;;;;18.80;99.90;;;17.61;54.26;95376.88;10479683;28;3184;-68
2022/09/02 17:43:01;;;;;;;;;;;18.70;99.90;;;17.47;54.88;95374.41;10480993;28;3160;-69
2022/09/02 17:48:04;;;;;;;;;;;18.50;99.90;;;17.36;55.69;95381.31;10476927;28;3137;-68
2022/09/02 17:53:27;;;;;;;;;;;18.40;99.90;;;17.15;57.07;95373.09;10477008;28;3190;-68
2022/09/02 17:58:30;;;;;;;;;;;18.20;99.90;;;17.01;58.10;95388.81;10483166;28;3259;-68
2022/09/02 18:03:34;;;;;;;;;;;18.00;99.90;;;16.90;59.83;95382.13;10465788;28;2376;-68
2022/09/02 18:08:37;;;;;;;;;;;17.90;99.90;;;16.76;61.53;95390.44;10487732;28;3241;-70
2022/09/02 18:13:40;;;;;;;;;;;17.80;99.90;;;16.64;62.49;95384.84;10484913;28;3123;-69
2022/09/02 18:18:43;;;;;;;;;;;17.70;99.90;;;16.43;64.11;95384.72;10484658;28;3155;-68
2022/09/02 18:23:46;;;;;;;;;;;17.50;99.90;;;16.21;65.60;95394.59;10467052;28;3139;-68
2022/09/02 18:28:49;;;;;;;;;;;17.40;99.90;;;16.19;66.43;95398.75;10467726;28;2324;-68
2022/09/02 18:33:52;;;;;;;;;;;17.20;99.90;;;16.17;66.83;95409.13;10489998;28;3208;-68
2022/09/02 18:38:55;;;;;;;;;;;17.10;99.90;;;15.86;70.10;95422.78;10485836;28;3128;-70
2022/09/02 18:43:58;;;;;;;;;;;17.00;99.90;;;15.89;69.73;95420.22;10488098;28;3283;-74
2022/09/02 18:49:01;;;;;;;;;;;16.90;99.90;;;15.77;70.88;95411.09;10490196;28;3211;-76
2022/09/02 18:54:04;;;;;;;;;;;16.90;99.90;;;15.75;72.10;95408.72;10477185;28;3192;-70
2022/09/02 18:59:09;;;;;;;;;;;16.70;99.90;;;15.61;73.28;95410.72;10488701;28;2507;-70
2022/09/02 19:04:12;;;;;;;;;;;16.70;99.90;;;15.54;72.40;95419.31;10485224;28;3208;-70
2022/09/02 19:09:15;;;;;;;;;;;16.60;99.90;;;15.50;72.52;95431.88;10486530;28;2295;-70
2022/09/02 19:14:19;;;;;;;;;;;16.50;99.90;;;15.31;74.21;95440.22;10489377;28;3399;-75
2022/09/02 19:19:22;;;;;;;;;;;16.40;99.90;;;15.21;75.11;95450.53;10487408;28;3188;-75
2022/09/02 19:24:25;;;;;;;;;;;16.30;99.90;;;15.23;77.20;95451.81;10488954;28;3215;-69
2022/09/02 19:29:27;;;;;;;;;;;16.30;99.90;;;15.03;77.75;95442.31;10486103;28;3166;-69
2022/09/02 19:34:30;;;;;;;;;;;16.20;99.90;;;15.11;77.66;95436.16;10488885;28;2265;-68
2022/09/02 19:39:33;;;;;;;;;;;16.00;99.90;;;15.03;78.41;95431.50;10487203;28;3215;-69
2022/09/02 19:44:37;;;;;;;;;;;16.00;99.90;;;14.95;79.48;95431.41;10477959;28;3555;-68
2022/09/02 19:49:40;;;;;;;;;;;16.00;99.90;;;14.90;79.68;95429.66;10500048;28;2341;-68
2022/09/02 19:54:45;;;;;;;;;;;16.00;99.90;;;15.00;79.06;95432.09;10483428;28;3300;-70
2022/09/02 19:59:48;;;;;;;;;;;16.00;99.90;;;14.96;79.49;95412.19;10486111;28;3290;-70
2022/09/02 20:04:52;;;;;;;;;;;15.90;99.90;;;14.89;79.90;95419.94;10482909;28;3188;-70
2022/09/02 20:09:54;;;;;;;;;;;15.90;99.90;;;14.78;80.33;95434.84;10487309;28;3184;-69
2022/09/02 20:14:57;;;;;;;;;;;15.80;99.90;;;14.65;81.31;95438.41;10486501;28;3148;-69
2022/09/02 20:20:00;;;;;;;;;;;15.70;99.90;;;14.46;84.13;95452.91;10480726;28;3223;-69
2022/09/02 20:25:03;;;;;;;;;;;15.60;99.90;;;14.45;84.15;95445.06;10485438;28;3195;-68
2022/09/02 20:30:06;;;;;;;;;;;15.50;99.90;;;14.55;82.28;95437.53;10483263;28;2261;-70
2022/09/02 20:35:10;;;;;;;;;;;15.50;99.90;;;14.45;83.12;95431.53;10482936;28;2367;-69
2022/09/02 20:40:13;;;;;;;;;;;15.40;99.90;;;14.41;83.34;95425.94;10483022;28;3168;-68
2022/09/02 20:45:16;;;;;;;;;;;15.40;99.90;;;14.38;83.46;95431.13;10483717;28;3152;-69
2022/09/02 20:50:19;;;;;;;;;;;15.50;99.90;;;14.36;83.37;95427.94;10484138;28;3268;-68
2022/09/02 20:55:22;;;;;;;;;;;15.30;99.90;;;14.23;84.57;95424.19;10483372;28;3199;-69
2022/09/02 21:00:25;;;;;;;;;;;15.20;99.90;;;14.24;84.99;95431.19;10483207;28;3896;-69
2022/09/02 21:05:28;;;;;;;;;;;15.20;99.90;;;14.28;84.44;95426.78;10483178;28;3298;-69
2022/09/02 21:10:31;;;;;;;;;;;15.20;99.90;;;14.23;85.03;95421.47;10485113;28;2329;-69
2022/09/02 21:15:34;;;;;;;;;;;15.20;99.90;;;14.06;86.48;95428.34;10484154;28;3124;-70
2022/09/02 21:20:39;;;;;;;;;;;15.10;99.90;;;14.00;88.07;95416.06;10486424;28;3280;-71
2022/09/02 21:25:42;;;;;;;;;;;15.00;99.90;;;13.92;89.15;95424.84;10480733;28;2320;-69
2022/09/02 21:30:45;;;;;;;;;;;15.00;99.90;;;13.81;89.76;95422.69;10482835;28;3164;-70
2022/09/02 21:35:48;;;;;;;;;;;14.90;99.90;;;13.81;89.31;95415.38;10489888;28;3281;-70
2022/09/02 21:40:51;;;;;;;;;;;14.80;99.90;;;13.75;90.37;95416.59;10489188;28;3216;-70
2022/09/02 21:45:54;;;;;;;;;;;14.80;99.90;;;13.66;91.50;95421.09;10491156;28;3288;-70
2022/09/02 21:50:58;;;;;;;;;;;14.80;99.90;;;13.61;91.65;95419.28;10473041;28;2306;-71
2022/09/02 21:56:01;;;;;;;;;;;14.60;99.90;;;13.64;91.79;95416.00;10487224;28;3133;-70
2022/09/02 22:01:03;;;;;;;;;;;14.60;99.90;;;13.70;91.04;95419.38;10490153;28;3158;-70
2022/09/02 22:06:07;;;;;;;;;;;14.70;99.90;;;13.69;91.05;95420.50;10489080;28;2411;-70
2022/09/02 22:11:10;;;;;;;;;;;14.60;99.90;;;13.74;90.39;95425.78;10490115;28;2367;-69
2022/09/02 22:16:14;;;;;;;;;;;14.70;99.90;;;13.79;90.24;95420.28;10476653;28;3135;-70
2022/09/02 22:21:18;;;;;;;;;;;14.60;99.90;;;13.77;90.69;95422.47;10476932;28;2413;-69
2022/09/02 22:26:21;;;;;;;;;;;14.80;99.90;;;13.56;92.04;95422.09;10489307;28;3128;-69
2022/09/02 22:31:25;;;;;;;;;;;14.60;99.90;;;13.50;93.46;95420.59;10488787;28;3156;-70
2022/09/02 22:36:28;;;;;;;;;;;14.50;99.90;;;13.46;94.21;95423.09;10487576;28;3290;-69
2022/09/02 22:41:31;;;;;;;;;;;14.40;99.90;;;13.42;94.15;95408.63;10486630;28;2316;-74
2022/09/02 22:57:19;;;;;;;;;;;14.30;99.90;;;13.40;94.95;95412.69;10481137;28;3163;-70
2022/09/02 23:02:22;;;;;;;;;;;14.30;99.90;;;13.56;94.89;95413.22;10487224;28;3129;-68
2022/09/02 23:07:25;;;;;;;;;;;14.40;99.90;;;13.72;92.33;95407.16;10482800;28;3206;-70
2022/09/02 23:12:28;;;;;;;;;;;14.50;99.90;;;13.66;93.43;95412.97;10484724;28;3566;-70
2022/09/02 23:17:33;;;;;;;;;;;14.50;99.90;;;13.62;93.27;95415.50;10485730;28;1969;-70
2022/09/02 23:22:36;;;;;;;;;;;14.60;99.90;;;13.46;95.32;95409.59;10468066;28;2425;-69
2022/09/02 23:27:43;;;;;;;;;;;14.50;99.90;;;13.39;94.64;95400.31;10483637;28;3291;-70
2022/09/02 23:32:46;;;;;;;;;;;14.40;99.90;;;13.23;95.72;95400.59;10483930;28;2271;-70
2022/09/02 23:37:49;;;;;;;;;;;14.30;99.90;;;13.14;96.99;95393.47;10484655;28;3165;-70